Marrero, Louisiana
Current Conditions -  °F | °C
As of 12:55 AM on Monday 24 Nov 2014 (Local Time) from KVSH Reporting Station
Few Clouds Few Clouds  
Wind Chill: 68°   Ceiling: Unl
Heat Index: 68°   Visibility: 10mi
Dew Point: 63°   Wind: 6mph
Humidity: 83%   Direction: 200°SSW
Pressure: 29.76"   Gusts: NA
Location:  29.9°N, 90.11°W
Report Text: KVSH 240655Z AUTO 20005KT 10SM FEW006 20/17 A2976 RMK AO1
Loading
Personal Weather Stations






























Interactive Weather Map New forecast layout! Learn more

10-Day Weather Forecast

Advertisements
Track Severe Weather on mobile